Weather at Lee Airport

Public forecast

Using degrees Fahrenheit for public forecast. Weather courtesy of forecast.io.

Closest aviation weather report (METAR) to Lee Airport

Closest report is Tipton Airport, 12.4 nm (22.9 km) NW.

2024/07/17 12:09 (retrieved 28 minutes ago)

KFME 171209Z AUTO 25003KT 10SM CLR 26/23 A2992 RMK AO1

Closest aviation forecast (TAF) to Lee Airport

Closest forecast is Baltimore/Washington International Thurgood Marshall Airport, 14.7 nm (27.3 km) NNW.

2024/07/17 12:33 (retrieved 4 minutes ago)

TAF KBWI 171131Z 1712/1818 24004KT P6SM SCT150 BKN250 FM171800 25008KT P6SM FEW050 SCT250 FM172100 25009KT P6SM -TSRA BKN050CB FM180100 22006KT P6SM VCSH SCT025 OVC060 FM180600 25003KT P6SM SCT025 BKN100 FM181300 34005KT P6SM SCT120